sensor_id;sensor_type;location;lat;lon;timestamp;P1;durP1;ratioP1;P2;durP2;ratioP2
67456;SDS011;54319;52.038;4.640;2023-06-26T00:01:52;7.22;;;3.80;;
67456;SDS011;54319;52.038;4.640;2023-06-26T00:04:18;6.68;;;3.28;;
67456;SDS011;54319;52.038;4.640;2023-06-26T00:06:45;4.65;;;3.25;;
67456;SDS011;54319;52.038;4.640;2023-06-26T00:09:11;3.72;;;3.20;;
67456;SDS011;54319;52.038;4.640;2023-06-26T00:11:40;5.25;;;3.58;;
67456;SDS011;54319;52.038;4.640;2023-06-26T00:14:06;7.55;;;3.72;;
67456;SDS011;54319;52.038;4.640;2023-06-26T00:16:33;4.90;;;3.70;;
67456;SDS011;54319;52.038;4.640;2023-06-26T00:19:00;6.88;;;3.65;;
67456;SDS011;54319;52.038;4.640;2023-06-26T00:21:26;5.13;;;3.70;;
67456;SDS011;54319;52.038;4.640;2023-06-26T00:23:53;6.93;;;3.58;;
67456;SDS011;54319;52.038;4.640;2023-06-26T00:26:20;5.07;;;3.63;;
67456;SDS011;54319;52.038;4.640;2023-06-26T00:28:48;6.60;;;3.88;;
67456;SDS011;54319;52.038;4.640;2023-06-26T00:31:16;4.72;;;3.40;;
67456;SDS011;54319;52.038;4.640;2023-06-26T00:33:43;7.03;;;3.45;;
67456;SDS011;54319;52.038;4.640;2023-06-26T00:36:10;7.70;;;3.75;;
67456;SDS011;54319;52.038;4.640;2023-06-26T00:38:36;5.90;;;3.78;;
67456;SDS011;54319;52.038;4.640;2023-06-26T00:41:03;6.68;;;4.00;;
67456;SDS011;54319;52.038;4.640;2023-06-26T00:43:30;4.78;;;3.63;;
67456;SDS011;54319;52.038;4.640;2023-06-26T00:45:58;7.93;;;3.35;;
67456;SDS011;54319;52.038;4.640;2023-06-26T00:48:24;7.53;;;3.70;;
67456;SDS011;54319;52.038;4.640;2023-06-26T00:50:51;6.03;;;3.42;;
67456;SDS011;54319;52.038;4.640;2023-06-26T00:53:18;6.20;;;3.55;;
67456;SDS011;54319;52.038;4.640;2023-06-26T00:55:45;8.55;;;3.70;;
67456;SDS011;54319;52.038;4.640;2023-06-26T01:00:38;5.63;;;3.30;;
67456;SDS011;54319;52.038;4.640;2023-06-26T01:03:06;8.73;;;3.63;;
67456;SDS011;54319;52.038;4.640;2023-06-26T01:05:33;10.63;;;3.30;;
67456;SDS011;54319;52.038;4.640;2023-06-26T01:08:00;9.48;;;3.65;;
67456;SDS011;54319;52.038;4.640;2023-06-26T01:10:28;11.32;;;3.15;;
67456;SDS011;54319;52.038;4.640;2023-06-26T01:12:55;10.52;;;3.20;;
67456;SDS011;54319;52.038;4.640;2023-06-26T01:15:23;6.28;;;3.22;;
67456;SDS011;54319;52.038;4.640;2023-06-26T01:17:49;7.45;;;3.15;;
67456;SDS011;54319;52.038;4.640;2023-06-26T01:20:19;8.13;;;3.70;;
67456;SDS011;54319;52.038;4.640;2023-06-26T01:22:48;10.68;;;3.53;;
67456;SDS011;54319;52.038;4.640;2023-06-26T01:25:26;11.40;;;3.60;;
67456;SDS011;54319;52.038;4.640;2023-06-26T01:28:05;12.15;;;3.28;;
67456;SDS011;54319;52.038;4.640;2023-06-26T01:30:34;7.90;;;3.42;;
67456;SDS011;54319;52.038;4.640;2023-06-26T01:33:02;10.38;;;3.80;;
67456;SDS011;54319;52.038;4.640;2023-06-26T01:35:30;9.63;;;3.92;;
67456;SDS011;54319;52.038;4.640;2023-06-26T01:38:10;11.05;;;3.92;;
67456;SDS011;54319;52.038;4.640;2023-06-26T01:40:38;10.18;;;3.55;;
67456;SDS011;54319;52.038;4.640;2023-06-26T01:43:06;12.38;;;3.80;;
67456;SDS011;54319;52.038;4.640;2023-06-26T01:45:41;9.55;;;3.67;;
67456;SDS011;54319;52.038;4.640;2023-06-26T01:48:11;9.73;;;3.63;;
67456;SDS011;54319;52.038;4.640;2023-06-26T01:50:39;10.70;;;3.90;;
67456;SDS011;54319;52.038;4.640;2023-06-26T01:53:07;13.75;;;4.15;;
67456;SDS011;54319;52.038;4.640;2023-06-26T01:55:40;8.75;;;3.70;;
67456;SDS011;54319;52.038;4.640;2023-06-26T01:58:12;13.27;;;4.22;;
67456;SDS011;54319;52.038;4.640;2023-06-26T02:00:41;12.75;;;3.75;;
67456;SDS011;54319;52.038;4.640;2023-06-26T02:05:35;8.35;;;3.50;;
67456;SDS011;54319;52.038;4.640;2023-06-26T02:08:02;8.07;;;3.60;;
67456;SDS011;54319;52.038;4.640;2023-06-26T02:12:56;11.35;;;3.38;;
67456;SDS011;54319;52.038;4.640;2023-06-26T02:15:24;6.22;;;3.28;;
67456;SDS011;54319;52.038;4.640;2023-06-26T02:17:50;8.98;;;3.78;;
67456;SDS011;54319;52.038;4.640;2023-06-26T02:20:17;9.95;;;3.75;;
67456;SDS011;54319;52.038;4.640;2023-06-26T02:22:44;6.97;;;3.28;;
67456;SDS011;54319;52.038;4.640;2023-06-26T02:25:10;10.68;;;3.42;;
67456;SDS011;54319;52.038;4.640;2023-06-26T02:27:37;8.60;;;3.58;;
67456;SDS011;54319;52.038;4.640;2023-06-26T02:30:04;15.57;;;3.80;;
67456;SDS011;54319;52.038;4.640;2023-06-26T02:32:33;10.02;;;3.63;;
67456;SDS011;54319;52.038;4.640;2023-06-26T02:35:00;13.82;;;4.03;;
67456;SDS011;54319;52.038;4.640;2023-06-26T02:37:27;9.23;;;3.83;;
67456;SDS011;54319;52.038;4.640;2023-06-26T02:39:53;10.20;;;3.50;;
67456;SDS011;54319;52.038;4.640;2023-06-26T02:42:20;12.25;;;3.65;;
67456;SDS011;54319;52.038;4.640;2023-06-26T02:44:47;11.23;;;3.50;;
67456;SDS011;54319;52.038;4.640;2023-06-26T02:47:13;9.57;;;3.95;;
67456;SDS011;54319;52.038;4.640;2023-06-26T02:49:41;10.43;;;3.80;;
67456;SDS011;54319;52.038;4.640;2023-06-26T02:52:08;14.00;;;3.90;;
67456;SDS011;54319;52.038;4.640;2023-06-26T02:54:35;10.43;;;3.47;;
67456;SDS011;54319;52.038;4.640;2023-06-26T02:57:01;8.10;;;3.50;;
67456;SDS011;54319;52.038;4.640;2023-06-26T02:59:28;13.15;;;4.00;;
67456;SDS011;54319;52.038;4.640;2023-06-26T03:01:55;11.63;;;3.38;;
67456;SDS011;54319;52.038;4.640;2023-06-26T03:04:21;6.45;;;3.65;;
67456;SDS011;54319;52.038;4.640;2023-06-26T03:06:49;9.43;;;3.55;;
67456;SDS011;54319;52.038;4.640;2023-06-26T03:09:16;9.00;;;3.65;;
67456;SDS011;54319;52.038;4.640;2023-06-26T03:11:43;11.85;;;4.10;;
67456;SDS011;54319;52.038;4.640;2023-06-26T03:14:09;10.80;;;3.97;;
67456;SDS011;54319;52.038;4.640;2023-06-26T03:19:03;13.45;;;3.55;;
67456;SDS011;54319;52.038;4.640;2023-06-26T03:21:30;9.20;;;3.25;;
67456;SDS011;54319;52.038;4.640;2023-06-26T03:23:58;12.43;;;3.92;;
67456;SDS011;54319;52.038;4.640;2023-06-26T03:26:25;12.60;;;4.10;;
67456;SDS011;54319;52.038;4.640;2023-06-26T03:28:53;15.10;;;3.70;;
67456;SDS011;54319;52.038;4.640;2023-06-26T03:31:20;9.95;;;4.38;;
67456;SDS011;54319;52.038;4.640;2023-06-26T03:33:47;18.20;;;4.10;;
67456;SDS011;54319;52.038;4.640;2023-06-26T03:36:13;12.35;;;4.10;;
67456;SDS011;54319;52.038;4.640;2023-06-26T03:38:40;14.80;;;3.85;;
67456;SDS011;54319;52.038;4.640;2023-06-26T03:41:08;11.98;;;3.90;;
67456;SDS011;54319;52.038;4.640;2023-06-26T03:43:36;8.75;;;3.58;;
67456;SDS011;54319;52.038;4.640;2023-06-26T03:46:02;10.23;;;4.00;;
67456;SDS011;54319;52.038;4.640;2023-06-26T03:48:29;14.27;;;4.15;;
67456;SDS011;54319;52.038;4.640;2023-06-26T03:50:56;9.45;;;4.07;;
67456;SDS011;54319;52.038;4.640;2023-06-26T03:53:22;7.72;;;3.15;;
67456;SDS011;54319;52.038;4.640;2023-06-26T03:55:49;14.90;;;3.90;;
67456;SDS011;54319;52.038;4.640;2023-06-26T03:58:17;12.73;;;4.32;;
67456;SDS011;54319;52.038;4.640;2023-06-26T04:00:44;12.50;;;4.60;;
67456;SDS011;54319;52.038;4.640;2023-06-26T04:03:12;9.52;;;3.63;;
67456;SDS011;54319;52.038;4.640;2023-06-26T04:05:38;10.68;;;3.40;;
67456;SDS011;54319;52.038;4.640;2023-06-26T04:08:05;12.20;;;3.85;;
67456;SDS011;54319;52.038;4.640;2023-06-26T04:10:32;15.48;;;4.45;;
67456;SDS011;54319;52.038;4.640;2023-06-26T04:12:59;13.38;;;3.80;;
67456;SDS011;54319;52.038;4.640;2023-06-26T04:15:27;12.38;;;4.30;;
67456;SDS011;54319;52.038;4.640;2023-06-26T04:17:53;11.60;;;3.38;;
67456;SDS011;54319;52.038;4.640;2023-06-26T04:20:20;12.20;;;3.97;;
67456;SDS011;54319;52.038;4.640;2023-06-26T04:22:47;12.00;;;3.53;;
67456;SDS011;54319;52.038;4.640;2023-06-26T04:25:13;8.30;;;3.40;;
67456;SDS011;54319;52.038;4.640;2023-06-26T04:27:40;14.60;;;3.83;;
67456;SDS011;54319;52.038;4.640;2023-06-26T04:30:07;12.77;;;3.40;;
67456;SDS011;54319;52.038;4.640;2023-06-26T04:32:36;13.30;;;3.47;;
67456;SDS011;54319;52.038;4.640;2023-06-26T04:35:03;9.05;;;3.58;;
67456;SDS011;54319;52.038;4.640;2023-06-26T04:37:30;13.52;;;3.50;;
67456;SDS011;54319;52.038;4.640;2023-06-26T04:39:56;12.93;;;4.03;;
67456;SDS011;54319;52.038;4.640;2023-06-26T04:42:23;8.65;;;3.17;;
67456;SDS011;54319;52.038;4.640;2023-06-26T04:44:50;8.23;;;2.95;;
67456;SDS011;54319;52.038;4.640;2023-06-26T04:47:16;8.18;;;2.92;;
67456;SDS011;54319;52.038;4.640;2023-06-26T04:49:44;11.88;;;3.33;;
67456;SDS011;54319;52.038;4.640;2023-06-26T04:52:11;6.85;;;2.58;;
67456;SDS011;54319;52.038;4.640;2023-06-26T04:54:38;5.75;;;2.10;;
67456;SDS011;54319;52.038;4.640;2023-06-26T04:57:05;5.65;;;2.47;;
67456;SDS011;54319;52.038;4.640;2023-06-26T04:59:33;5.45;;;2.40;;
67456;SDS011;54319;52.038;4.640;2023-06-26T05:02:00;5.28;;;2.28;;
67456;SDS011;54319;52.038;4.640;2023-06-26T05:04:27;6.60;;;2.63;;
67456;SDS011;54319;52.038;4.640;2023-06-26T05:06:55;4.38;;;2.42;;
67456;SDS011;54319;52.038;4.640;2023-06-26T05:09:21;6.80;;;2.47;;
67456;SDS011;54319;52.038;4.640;2023-06-26T05:11:48;4.45;;;2.40;;
67456;SDS011;54319;52.038;4.640;2023-06-26T05:14:15;8.70;;;2.40;;
67456;SDS011;54319;52.038;4.640;2023-06-26T05:16:41;5.22;;;2.42;;
67456;SDS011;54319;52.038;4.640;2023-06-26T05:19:08;7.35;;;2.80;;
67456;SDS011;54319;52.038;4.640;2023-06-26T05:21:35;4.32;;;2.50;;
67456;SDS011;54319;52.038;4.640;2023-06-26T05:26:31;4.57;;;2.60;;
67456;SDS011;54319;52.038;4.640;2023-06-26T05:28:59;5.55;;;2.72;;
67456;SDS011;54319;52.038;4.640;2023-06-26T05:33:52;8.80;;;2.80;;
67456;SDS011;54319;52.038;4.640;2023-06-26T05:36:21;10.18;;;2.80;;
67456;SDS011;54319;52.038;4.640;2023-06-26T05:38:50;5.93;;;2.45;;
67456;SDS011;54319;52.038;4.640;2023-06-26T05:43:45;5.10;;;2.65;;
67456;SDS011;54319;52.038;4.640;2023-06-26T05:46:12;8.43;;;2.75;;
67456;SDS011;54319;52.038;4.640;2023-06-26T05:48:39;12.18;;;2.70;;
67456;SDS011;54319;52.038;4.640;2023-06-26T05:51:07;4.57;;;2.50;;
67456;SDS011;54319;52.038;4.640;2023-06-26T05:53:34;9.10;;;2.70;;
67456;SDS011;54319;52.038;4.640;2023-06-26T05:58:31;4.80;;;2.33;;
67456;SDS011;54319;52.038;4.640;2023-06-26T06:00:59;6.22;;;1.85;;
67456;SDS011;54319;52.038;4.640;2023-06-26T06:03:25;3.38;;;1.95;;
67456;SDS011;54319;52.038;4.640;2023-06-26T06:05:52;4.18;;;1.98;;
67456;SDS011;54319;52.038;4.640;2023-06-26T06:08:19;6.22;;;1.95;;
67456;SDS011;54319;52.038;4.640;2023-06-26T06:10:45;3.65;;;1.75;;
67456;SDS011;54319;52.038;4.640;2023-06-26T06:13:12;5.00;;;1.65;;
67456;SDS011;54319;52.038;4.640;2023-06-26T06:15:40;4.15;;;1.52;;
67456;SDS011;54319;52.038;4.640;2023-06-26T06:18:07;3.13;;;1.52;;
67456;SDS011;54319;52.038;4.640;2023-06-26T06:20:34;6.63;;;1.92;;
67456;SDS011;54319;52.038;4.640;2023-06-26T06:23:01;3.95;;;1.75;;
67456;SDS011;54319;52.038;4.640;2023-06-26T06:25:27;6.40;;;1.73;;
67456;SDS011;54319;52.038;4.640;2023-06-26T06:27:54;6.80;;;1.65;;
67456;SDS011;54319;52.038;4.640;2023-06-26T06:30:21;3.40;;;1.23;;
67456;SDS011;54319;52.038;4.640;2023-06-26T06:32:49;7.40;;;2.88;;
67456;SDS011;54319;52.038;4.640;2023-06-26T06:35:17;4.93;;;1.60;;
67456;SDS011;54319;52.038;4.640;2023-06-26T06:37:44;5.72;;;1.45;;
67456;SDS011;54319;52.038;4.640;2023-06-26T06:40:11;7.55;;;1.73;;
67456;SDS011;54319;52.038;4.640;2023-06-26T06:45:05;3.92;;;1.30;;
67456;SDS011;54319;52.038;4.640;2023-06-26T06:47:34;5.45;;;1.40;;
67456;SDS011;54319;52.038;4.640;2023-06-26T06:50:02;3.92;;;1.45;;
67456;SDS011;54319;52.038;4.640;2023-06-26T06:52:34;5.00;;;1.40;;
67456;SDS011;54319;52.038;4.640;2023-06-26T06:55:01;4.85;;;1.40;;
67456;SDS011;54319;52.038;4.640;2023-06-26T06:57:31;3.97;;;1.50;;
67456;SDS011;54319;52.038;4.640;2023-06-26T07:00:01;3.60;;;1.48;;
67456;SDS011;54319;52.038;4.640;2023-06-26T07:02:28;5.97;;;1.48;;
67456;SDS011;54319;52.038;4.640;2023-06-26T07:04:54;6.25;;;1.52;;
67456;SDS011;54319;52.038;4.640;2023-06-26T07:07:22;7.78;;;1.73;;
67456;SDS011;54319;52.038;4.640;2023-06-26T07:09:49;6.47;;;1.42;;
67456;SDS011;54319;52.038;4.640;2023-06-26T07:12:16;4.20;;;1.42;;
67456;SDS011;54319;52.038;4.640;2023-06-26T07:14:42;13.13;;;1.80;;
67456;SDS011;54319;52.038;4.640;2023-06-26T07:17:09;5.03;;;1.67;;
67456;SDS011;54319;52.038;4.640;2023-06-26T07:19:36;4.10;;;1.50;;
67456;SDS011;54319;52.038;4.640;2023-06-26T07:22:02;3.95;;;1.33;;
67456;SDS011;54319;52.038;4.640;2023-06-26T07:26:59;7.68;;;1.85;;
67456;SDS011;54319;52.038;4.640;2023-06-26T07:29:26;4.25;;;1.33;;
67456;SDS011;54319;52.038;4.640;2023-06-26T07:31:52;5.28;;;1.50;;
67456;SDS011;54319;52.038;4.640;2023-06-26T07:34:19;6.10;;;1.65;;
67456;SDS011;54319;52.038;4.640;2023-06-26T07:36:46;4.40;;;1.58;;
67456;SDS011;54319;52.038;4.640;2023-06-26T07:39:12;5.55;;;1.50;;
67456;SDS011;54319;52.038;4.640;2023-06-26T07:41:40;4.53;;;1.60;;
67456;SDS011;54319;52.038;4.640;2023-06-26T07:44:07;8.23;;;1.60;;
67456;SDS011;54319;52.038;4.640;2023-06-26T07:46:34;6.68;;;1.70;;
67456;SDS011;54319;52.038;4.640;2023-06-26T07:49:00;4.72;;;1.50;;
67456;SDS011;54319;52.038;4.640;2023-06-26T07:51:27;4.38;;;1.80;;
67456;SDS011;54319;52.038;4.640;2023-06-26T07:53:54;8.18;;;1.90;;
67456;SDS011;54319;52.038;4.640;2023-06-26T07:56:20;8.63;;;1.63;;
67456;SDS011;54319;52.038;4.640;2023-06-26T07:58:48;4.07;;;1.60;;
67456;SDS011;54319;52.038;4.640;2023-06-26T08:01:15;3.72;;;1.50;;
67456;SDS011;54319;52.038;4.640;2023-06-26T08:06:08;3.92;;;1.48;;
67456;SDS011;54319;52.038;4.640;2023-06-26T08:08:35;2.65;;;1.40;;
67456;SDS011;54319;52.038;4.640;2023-06-26T08:11:02;4.82;;;1.50;;
67456;SDS011;54319;52.038;4.640;2023-06-26T08:13:29;3.38;;;1.20;;
67456;SDS011;54319;52.038;4.640;2023-06-26T08:15:57;4.60;;;1.35;;
67456;SDS011;54319;52.038;4.640;2023-06-26T08:18:23;3.28;;;1.30;;
67456;SDS011;54319;52.038;4.640;2023-06-26T08:20:50;3.13;;;1.20;;
67456;SDS011;54319;52.038;4.640;2023-06-26T08:23:17;4.65;;;1.60;;
67456;SDS011;54319;52.038;4.640;2023-06-26T08:25:44;3.28;;;1.42;;
67456;SDS011;54319;52.038;4.640;2023-06-26T08:28:12;3.03;;;1.20;;
67456;SDS011;54319;52.038;4.640;2023-06-26T08:30:38;3.97;;;1.60;;
67456;SDS011;54319;52.038;4.640;2023-06-26T08:33:08;2.08;;;1.30;;
67456;SDS011;54319;52.038;4.640;2023-06-26T08:35:37;4.75;;;1.60;;
67456;SDS011;54319;52.038;4.640;2023-06-26T08:38:04;4.55;;;1.48;;
67456;SDS011;54319;52.038;4.640;2023-06-26T08:40:30;4.28;;;1.70;;
67456;SDS011;54319;52.038;4.640;2023-06-26T08:42:58;3.13;;;1.20;;
67456;SDS011;54319;52.038;4.640;2023-06-26T08:45:25;4.68;;;1.42;;
67456;SDS011;54319;52.038;4.640;2023-06-26T08:47:53;3.65;;;1.70;;
67456;SDS011;54319;52.038;4.640;2023-06-26T08:50:23;4.03;;;1.50;;
67456;SDS011;54319;52.038;4.640;2023-06-26T08:52:52;1.92;;;1.30;;
67456;SDS011;54319;52.038;4.640;2023-06-26T08:55:23;3.22;;;1.48;;
67456;SDS011;54319;52.038;4.640;2023-06-26T08:57:51;3.40;;;1.13;;
67456;SDS011;54319;52.038;4.640;2023-06-26T09:00:18;2.70;;;1.38;;
67456;SDS011;54319;52.038;4.640;2023-06-26T09:02:45;7.15;;;1.63;;
67456;SDS011;54319;52.038;4.640;2023-06-26T09:07:40;3.85;;;1.40;;
67456;SDS011;54319;52.038;4.640;2023-06-26T09:10:08;3.78;;;1.30;;
67456;SDS011;54319;52.038;4.640;2023-06-26T09:12:35;5.57;;;1.80;;
67456;SDS011;54319;52.038;4.640;2023-06-26T09:15:03;2.20;;;1.05;;
67456;SDS011;54319;52.038;4.640;2023-06-26T09:17:33;4.53;;;1.50;;
67456;SDS011;54319;52.038;4.640;2023-06-26T09:20:04;4.90;;;1.35;;
67456;SDS011;54319;52.038;4.640;2023-06-26T09:22:33;4.25;;;1.50;;
67456;SDS011;54319;52.038;4.640;2023-06-26T09:25:05;7.47;;;1.58;;
67456;SDS011;54319;52.038;4.640;2023-06-26T09:27:32;5.03;;;1.23;;
67456;SDS011;54319;52.038;4.640;2023-06-26T09:30:01;3.08;;;1.10;;
67456;SDS011;54319;52.038;4.640;2023-06-26T09:32:28;3.30;;;1.20;;
67456;SDS011;54319;52.038;4.640;2023-06-26T09:34:55;5.68;;;1.52;;
67456;SDS011;54319;52.038;4.640;2023-06-26T09:37:22;2.50;;;1.20;;
67456;SDS011;54319;52.038;4.640;2023-06-26T09:39:50;6.57;;;1.60;;
67456;SDS011;54319;52.038;4.640;2023-06-26T09:42:18;2.10;;;1.02;;
67456;SDS011;54319;52.038;4.640;2023-06-26T09:44:45;3.75;;;1.70;;
67456;SDS011;54319;52.038;4.640;2023-06-26T09:47:12;6.47;;;1.45;;
67456;SDS011;54319;52.038;4.640;2023-06-26T09:49:42;4.35;;;1.30;;
67456;SDS011;54319;52.038;4.640;2023-06-26T09:52:09;3.60;;;1.30;;
67456;SDS011;54319;52.038;4.640;2023-06-26T09:54:40;5.05;;;1.30;;
67456;SDS011;54319;52.038;4.640;2023-06-26T09:57:09;5.32;;;1.80;;
67456;SDS011;54319;52.038;4.640;2023-06-26T09:59:38;3.67;;;1.30;;
67456;SDS011;54319;52.038;4.640;2023-06-26T10:02:05;6.63;;;1.83;;
67456;SDS011;54319;52.038;4.640;2023-06-26T10:04:32;4.78;;;1.45;;
67456;SDS011;54319;52.038;4.640;2023-06-26T10:07:01;5.85;;;1.55;;
67456;SDS011;54319;52.038;4.640;2023-06-26T10:09:30;5.22;;;1.90;;
67456;SDS011;54319;52.038;4.640;2023-06-26T10:11:59;5.32;;;1.73;;
67456;SDS011;54319;52.038;4.640;2023-06-26T10:14:33;6.53;;;1.70;;
67456;SDS011;54319;52.038;4.640;2023-06-26T10:17:03;3.63;;;1.50;;
67456;SDS011;54319;52.038;4.640;2023-06-26T10:19:33;1.88;;;1.17;;
67456;SDS011;54319;52.038;4.640;2023-06-26T10:22:03;4.78;;;1.55;;
67456;SDS011;54319;52.038;4.640;2023-06-26T10:24:31;3.83;;;1.60;;
67456;SDS011;54319;52.038;4.640;2023-06-26T10:27:02;4.00;;;1.55;;
67456;SDS011;54319;52.038;4.640;2023-06-26T10:29:32;2.90;;;1.63;;
67456;SDS011;54319;52.038;4.640;2023-06-26T10:32:03;4.60;;;1.42;;
67456;SDS011;54319;52.038;4.640;2023-06-26T10:34:32;2.30;;;1.13;;
67456;SDS011;54319;52.038;4.640;2023-06-26T10:36:59;2.78;;;1.15;;
67456;SDS011;54319;52.038;4.640;2023-06-26T10:39:27;3.78;;;1.27;;
67456;SDS011;54319;52.038;4.640;2023-06-26T10:44:40;2.97;;;1.33;;
67456;SDS011;54319;52.038;4.640;2023-06-26T10:47:09;5.25;;;1.42;;
67456;SDS011;54319;52.038;4.640;2023-06-26T10:49:37;5.13;;;1.20;;
67456;SDS011;54319;52.038;4.640;2023-06-26T10:52:05;2.47;;;1.02;;
67456;SDS011;54319;52.038;4.640;2023-06-26T10:59:25;2.72;;;1.23;;
67456;SDS011;54319;52.038;4.640;2023-06-26T11:01:56;3.97;;;1.00;;
67456;SDS011;54319;52.038;4.640;2023-06-26T11:04:38;4.50;;;1.20;;
67456;SDS011;54319;52.038;4.640;2023-06-26T11:07:16;4.82;;;1.10;;
67456;SDS011;54319;52.038;4.640;2023-06-26T11:09:57;4.97;;;1.23;;
67456;SDS011;54319;52.038;4.640;2023-06-26T11:12:35;2.88;;;1.15;;
67456;SDS011;54319;52.038;4.640;2023-06-26T11:15:07;2.50;;;1.10;;
67456;SDS011;54319;52.038;4.640;2023-06-26T11:17:35;2.92;;;1.08;;
67456;SDS011;54319;52.038;4.640;2023-06-26T11:20:04;3.55;;;1.08;;
67456;SDS011;54319;52.038;4.640;2023-06-26T11:22:33;4.80;;;1.08;;
67456;SDS011;54319;52.038;4.640;2023-06-26T11:25:01;3.38;;;1.00;;
67456;SDS011;54319;52.038;4.640;2023-06-26T11:27:32;1.30;;;1.17;;
67456;SDS011;54319;52.038;4.640;2023-06-26T11:30:04;4.03;;;1.20;;
67456;SDS011;54319;52.038;4.640;2023-06-26T11:32:31;2.95;;;0.88;;
67456;SDS011;54319;52.038;4.640;2023-06-26T11:34:58;5.05;;;1.33;;
67456;SDS011;54319;52.038;4.640;2023-06-26T11:37:26;2.83;;;1.10;;
67456;SDS011;54319;52.038;4.640;2023-06-26T11:39:53;3.40;;;0.90;;
67456;SDS011;54319;52.038;4.640;2023-06-26T11:42:20;2.35;;;1.02;;
67456;SDS011;54319;52.038;4.640;2023-06-26T11:44:47;3.63;;;1.35;;
67456;SDS011;54319;52.038;4.640;2023-06-26T11:47:14;3.75;;;1.20;;
67456;SDS011;54319;52.038;4.640;2023-06-26T11:49:42;1.70;;;1.00;;
67456;SDS011;54319;52.038;4.640;2023-06-26T11:52:09;2.45;;;1.10;;
67456;SDS011;54319;52.038;4.640;2023-06-26T11:54:37;2.95;;;1.17;;
67456;SDS011;54319;52.038;4.640;2023-06-26T11:57:04;2.47;;;1.08;;
67456;SDS011;54319;52.038;4.640;2023-06-26T12:02:04;7.03;;;1.27;;
67456;SDS011;54319;52.038;4.640;2023-06-26T12:04:31;6.88;;;1.20;;
67456;SDS011;54319;52.038;4.640;2023-06-26T12:06:59;4.47;;;1.13;;
67456;SDS011;54319;52.038;4.640;2023-06-26T12:09:29;2.85;;;1.40;;
67456;SDS011;54319;52.038;4.640;2023-06-26T12:12:00;5.05;;;1.48;;
67456;SDS011;54319;52.038;4.640;2023-06-26T12:14:27;2.92;;;1.10;;
67456;SDS011;54319;52.038;4.640;2023-06-26T12:16:55;3.60;;;0.98;;
67456;SDS011;54319;52.038;4.640;2023-06-26T12:19:24;2.03;;;1.02;;
67456;SDS011;54319;52.038;4.640;2023-06-26T12:21:51;3.67;;;1.20;;
67456;SDS011;54319;52.038;4.640;2023-06-26T12:26:47;2.95;;;1.13;;
67456;SDS011;54319;52.038;4.640;2023-06-26T12:29:18;3.33;;;1.02;;
67456;SDS011;54319;52.038;4.640;2023-06-26T12:31:46;2.65;;;0.80;;
67456;SDS011;54319;52.038;4.640;2023-06-26T12:34:17;2.28;;;1.13;;
67456;SDS011;54319;52.038;4.640;2023-06-26T12:36:45;3.42;;;1.17;;
67456;SDS011;54319;52.038;4.640;2023-06-26T12:39:15;2.42;;;1.02;;
67456;SDS011;54319;52.038;4.640;2023-06-26T12:41:48;1.02;;;0.93;;
67456;SDS011;54319;52.038;4.640;2023-06-26T12:44:20;5.80;;;1.15;;
67456;SDS011;54319;52.038;4.640;2023-06-26T12:46:48;1.35;;;0.90;;
67456;SDS011;54319;52.038;4.640;2023-06-26T12:49:16;8.38;;;1.10;;
67456;SDS011;54319;52.038;4.640;2023-06-26T12:51:44;3.00;;;1.27;;
67456;SDS011;54319;52.038;4.640;2023-06-26T12:54:11;2.13;;;1.00;;
67456;SDS011;54319;52.038;4.640;2023-06-26T12:56:38;3.58;;;1.10;;
67456;SDS011;54319;52.038;4.640;2023-06-26T12:59:05;4.45;;;1.10;;
67456;SDS011;54319;52.038;4.640;2023-06-26T13:01:33;6.65;;;1.00;;
67456;SDS011;54319;52.038;4.640;2023-06-26T13:03:59;5.70;;;1.08;;
67456;SDS011;54319;52.038;4.640;2023-06-26T13:06:26;8.45;;;1.02;;
67456;SDS011;54319;52.038;4.640;2023-06-26T13:08:53;3.38;;;1.05;;
67456;SDS011;54319;52.038;4.640;2023-06-26T13:11:19;3.15;;;1.27;;
67456;SDS011;54319;52.038;4.640;2023-06-26T13:13:47;4.00;;;1.25;;
67456;SDS011;54319;52.038;4.640;2023-06-26T13:16:14;1.85;;;1.02;;
67456;SDS011;54319;52.038;4.640;2023-06-26T13:18:42;2.15;;;1.15;;
67456;SDS011;54319;52.038;4.640;2023-06-26T13:21:09;6.35;;;1.30;;
67456;SDS011;54319;52.038;4.640;2023-06-26T13:23:36;5.32;;;1.30;;
67456;SDS011;54319;52.038;4.640;2023-06-26T13:26:02;3.90;;;1.13;;
67456;SDS011;54319;52.038;4.640;2023-06-26T13:30:56;3.05;;;0.93;;
67456;SDS011;54319;52.038;4.640;2023-06-26T13:33:23;2.33;;;1.20;;
67456;SDS011;54319;52.038;4.640;2023-06-26T13:35:51;1.55;;;0.80;;
67456;SDS011;54319;52.038;4.640;2023-06-26T13:38:18;1.70;;;0.77;;
67456;SDS011;54319;52.038;4.640;2023-06-26T13:40:49;2.28;;;0.90;;
67456;SDS011;54319;52.038;4.640;2023-06-26T13:43:16;1.60;;;0.90;;
67456;SDS011;54319;52.038;4.640;2023-06-26T13:45:42;3.50;;;1.10;;
67456;SDS011;54319;52.038;4.640;2023-06-26T13:48:09;2.20;;;1.05;;
67456;SDS011;54319;52.038;4.640;2023-06-26T13:50:36;6.15;;;1.17;;
67456;SDS011;54319;52.038;4.640;2023-06-26T13:53:04;5.20;;;1.40;;
67456;SDS011;54319;52.038;4.640;2023-06-26T13:55:31;2.90;;;0.90;;
67456;SDS011;54319;52.038;4.640;2023-06-26T13:57:57;1.50;;;0.82;;
67456;SDS011;54319;52.038;4.640;2023-06-26T14:00:24;2.53;;;1.08;;
67456;SDS011;54319;52.038;4.640;2023-06-26T14:02:51;1.80;;;0.88;;
67456;SDS011;54319;52.038;4.640;2023-06-26T14:10:12;1.88;;;0.80;;
67456;SDS011;54319;52.038;4.640;2023-06-26T14:12:40;2.38;;;1.10;;
67456;SDS011;54319;52.038;4.640;2023-06-26T14:15:07;1.10;;;0.98;;
67456;SDS011;54319;52.038;4.640;2023-06-26T14:17:35;3.50;;;1.15;;
67456;SDS011;54319;52.038;4.640;2023-06-26T14:20:05;1.08;;;0.70;;
67456;SDS011;54319;52.038;4.640;2023-06-26T14:22:34;1.77;;;0.90;;
67456;SDS011;54319;52.038;4.640;2023-06-26T14:25:01;1.13;;;0.80;;
67456;SDS011;54319;52.038;4.640;2023-06-26T14:29:56;1.50;;;1.00;;
67456;SDS011;54319;52.038;4.640;2023-06-26T14:32:22;4.22;;;1.25;;
67456;SDS011;54319;52.038;4.640;2023-06-26T14:34:49;4.97;;;1.10;;
67456;SDS011;54319;52.038;4.640;2023-06-26T14:37:16;1.60;;;0.80;;
67456;SDS011;54319;52.038;4.640;2023-06-26T14:39:44;3.15;;;1.17;;
67456;SDS011;54319;52.038;4.640;2023-06-26T14:42:10;2.33;;;0.90;;
67456;SDS011;54319;52.038;4.640;2023-06-26T14:47:05;3.70;;;0.98;;
67456;SDS011;54319;52.038;4.640;2023-06-26T14:49:32;1.42;;;0.90;;
67456;SDS011;54319;52.038;4.640;2023-06-26T14:51:59;2.20;;;0.98;;
67456;SDS011;54319;52.038;4.640;2023-06-26T14:54:25;1.90;;;0.90;;
67456;SDS011;54319;52.038;4.640;2023-06-26T14:56:52;4.25;;;1.05;;
67456;SDS011;54319;52.038;4.640;2023-06-26T14:59:19;2.35;;;1.17;;
67456;SDS011;54319;52.038;4.640;2023-06-26T15:01:47;3.67;;;1.20;;
67456;SDS011;54319;52.038;4.640;2023-06-26T15:04:13;3.38;;;1.20;;
67456;SDS011;54319;52.038;4.640;2023-06-26T15:06:40;0.60;;;0.60;;
67456;SDS011;54319;52.038;4.640;2023-06-26T15:09:07;1.73;;;0.93;;
67456;SDS011;54319;52.038;4.640;2023-06-26T15:11:34;2.63;;;1.02;;
67456;SDS011;54319;52.038;4.640;2023-06-26T15:14:01;1.83;;;1.00;;
67456;SDS011;54319;52.038;4.640;2023-06-26T15:16:27;6.80;;;5.30;;
67456;SDS011;54319;52.038;4.640;2023-06-26T15:18:55;5.90;;;3.35;;
67456;SDS011;54319;52.038;4.640;2023-06-26T15:21:22;16.10;;;6.80;;
67456;SDS011;54319;52.038;4.640;2023-06-26T15:23:49;4.25;;;1.70;;
67456;SDS011;54319;52.038;4.640;2023-06-26T15:26:16;2.55;;;1.35;;
67456;SDS011;54319;52.038;4.640;2023-06-26T15:28:43;3.78;;;1.60;;
67456;SDS011;54319;52.038;4.640;2023-06-26T15:31:09;2.50;;;1.30;;
67456;SDS011;54319;52.038;4.640;2023-06-26T15:33:36;5.07;;;1.33;;
67456;SDS011;54319;52.038;4.640;2023-06-26T15:36:05;9.73;;;3.38;;
67456;SDS011;54319;52.038;4.640;2023-06-26T15:38:31;3.83;;;2.10;;
67456;SDS011;54319;52.038;4.640;2023-06-26T15:40:58;6.05;;;3.00;;
67456;SDS011;54319;52.038;4.640;2023-06-26T15:43:25;2.35;;;1.42;;